sensor_id;sensor_type;location;lat;lon;timestamp;P1;durP1;ratioP1;P2;durP2;ratioP2
61911;SDS011;49973;52.084;5.412;2024-02-14T00:01:28;2.23;;;1.80;;
61911;SDS011;49973;52.084;5.412;2024-02-14T00:03:56;3.27;;;1.90;;
61911;SDS011;49973;52.084;5.412;2024-02-14T00:06:26;1.90;;;1.50;;
61911;SDS011;49973;52.084;5.412;2024-02-14T00:08:55;1.07;;;1.07;;
61911;SDS011;49973;52.084;5.412;2024-02-14T00:11:23;1.47;;;1.37;;
61911;SDS011;49973;52.084;5.412;2024-02-14T00:13:52;6.53;;;1.40;;
61911;SDS011;49973;52.084;5.412;2024-02-14T00:16:22;1.30;;;1.20;;
61911;SDS011;49973;52.084;5.412;2024-02-14T00:18:51;2.83;;;1.37;;
61911;SDS011;49973;52.084;5.412;2024-02-14T00:21:20;1.17;;;1.10;;
61911;SDS011;49973;52.084;5.412;2024-02-14T00:23:50;2.63;;;1.30;;
61911;SDS011;49973;52.084;5.412;2024-02-14T00:26:19;2.20;;;1.57;;
61911;SDS011;49973;52.084;5.412;2024-02-14T00:28:48;2.53;;;1.90;;
61911;SDS011;49973;52.084;5.412;2024-02-14T00:31:16;2.23;;;1.37;;
61911;SDS011;49973;52.084;5.412;2024-02-14T00:33:45;0.97;;;0.97;;
61911;SDS011;49973;52.084;5.412;2024-02-14T00:36:14;3.67;;;1.53;;
61911;SDS011;49973;52.084;5.412;2024-02-14T00:38:42;1.93;;;1.73;;
61911;SDS011;49973;52.084;5.412;2024-02-14T00:41:12;2.10;;;1.47;;
61911;SDS011;49973;52.084;5.412;2024-02-14T00:43:41;1.47;;;1.20;;
61911;SDS011;49973;52.084;5.412;2024-02-14T00:46:15;2.40;;;1.43;;
61911;SDS011;49973;52.084;5.412;2024-02-14T00:48:44;1.40;;;1.30;;
61911;SDS011;49973;52.084;5.412;2024-02-14T00:51:13;2.13;;;1.50;;
61911;SDS011;49973;52.084;5.412;2024-02-14T00:53:42;2.03;;;1.77;;
61911;SDS011;49973;52.084;5.412;2024-02-14T00:56:10;1.87;;;1.47;;
61911;SDS011;49973;52.084;5.412;2024-02-14T00:58:41;1.53;;;1.43;;
61911;SDS011;49973;52.084;5.412;2024-02-14T01:01:09;2.43;;;1.67;;
61911;SDS011;49973;52.084;5.412;2024-02-14T01:03:39;1.83;;;1.70;;
61911;SDS011;49973;52.084;5.412;2024-02-14T01:06:07;1.93;;;1.77;;
61911;SDS011;49973;52.084;5.412;2024-02-14T01:08:36;2.80;;;1.33;;
61911;SDS011;49973;52.084;5.412;2024-02-14T01:11:05;2.23;;;1.17;;
61911;SDS011;49973;52.084;5.412;2024-02-14T01:13:35;2.17;;;1.77;;
61911;SDS011;49973;52.084;5.412;2024-02-14T01:16:04;2.97;;;1.70;;
61911;SDS011;49973;52.084;5.412;2024-02-14T01:18:33;2.60;;;1.60;;
61911;SDS011;49973;52.084;5.412;2024-02-14T01:21:02;2.37;;;2.07;;
61911;SDS011;49973;52.084;5.412;2024-02-14T01:23:31;4.10;;;2.27;;
61911;SDS011;49973;52.084;5.412;2024-02-14T01:26:00;1.80;;;1.70;;
61911;SDS011;49973;52.084;5.412;2024-02-14T01:28:29;2.23;;;1.60;;
61911;SDS011;49973;52.084;5.412;2024-02-14T01:30:59;2.07;;;1.87;;
61911;SDS011;49973;52.084;5.412;2024-02-14T01:33:27;1.73;;;1.57;;
61911;SDS011;49973;52.084;5.412;2024-02-14T01:35:58;2.00;;;1.73;;
61911;SDS011;49973;52.084;5.412;2024-02-14T01:38:26;3.07;;;2.27;;
61911;SDS011;49973;52.084;5.412;2024-02-14T01:40:55;5.20;;;1.93;;
61911;SDS011;49973;52.084;5.412;2024-02-14T01:43:24;2.40;;;1.80;;
61911;SDS011;49973;52.084;5.412;2024-02-14T01:45:52;2.87;;;1.50;;
61911;SDS011;49973;52.084;5.412;2024-02-14T01:48:22;2.53;;;1.83;;
61911;SDS011;49973;52.084;5.412;2024-02-14T01:50:51;2.27;;;1.57;;
61911;SDS011;49973;52.084;5.412;2024-02-14T01:53:19;1.73;;;1.63;;
61911;SDS011;49973;52.084;5.412;2024-02-14T01:55:48;2.37;;;2.17;;
61911;SDS011;49973;52.084;5.412;2024-02-14T01:58:17;2.80;;;2.43;;
61911;SDS011;49973;52.084;5.412;2024-02-14T02:00:46;2.93;;;2.23;;
61911;SDS011;49973;52.084;5.412;2024-02-14T02:03:16;3.50;;;2.00;;
61911;SDS011;49973;52.084;5.412;2024-02-14T02:05:46;3.43;;;2.47;;
61911;SDS011;49973;52.084;5.412;2024-02-14T02:08:15;3.20;;;2.17;;
61911;SDS011;49973;52.084;5.412;2024-02-14T02:10:44;2.63;;;2.13;;
61911;SDS011;49973;52.084;5.412;2024-02-14T02:13:13;2.83;;;2.13;;
61911;SDS011;49973;52.084;5.412;2024-02-14T02:15:42;1.90;;;1.67;;
61911;SDS011;49973;52.084;5.412;2024-02-14T02:18:12;2.80;;;2.23;;
61911;SDS011;49973;52.084;5.412;2024-02-14T02:20:42;1.67;;;1.57;;
61911;SDS011;49973;52.084;5.412;2024-02-14T02:23:12;1.30;;;1.20;;
61911;SDS011;49973;52.084;5.412;2024-02-14T02:25:42;2.40;;;2.20;;
61911;SDS011;49973;52.084;5.412;2024-02-14T02:28:11;2.70;;;2.13;;
61911;SDS011;49973;52.084;5.412;2024-02-14T02:30:39;2.63;;;2.07;;
61911;SDS011;49973;52.084;5.412;2024-02-14T02:33:08;2.30;;;1.93;;
61911;SDS011;49973;52.084;5.412;2024-02-14T02:35:37;2.03;;;1.73;;
61911;SDS011;49973;52.084;5.412;2024-02-14T02:38:09;2.57;;;2.00;;
61911;SDS011;49973;52.084;5.412;2024-02-14T02:40:39;2.57;;;2.37;;
61911;SDS011;49973;52.084;5.412;2024-02-14T02:43:07;2.40;;;2.17;;
61911;SDS011;49973;52.084;5.412;2024-02-14T02:45:37;3.20;;;1.60;;
61911;SDS011;49973;52.084;5.412;2024-02-14T02:48:06;2.63;;;1.93;;
61911;SDS011;49973;52.084;5.412;2024-02-14T02:50:35;2.17;;;1.97;;
61911;SDS011;49973;52.084;5.412;2024-02-14T02:53:04;2.67;;;2.03;;
61911;SDS011;49973;52.084;5.412;2024-02-14T02:55:32;2.77;;;2.37;;
61911;SDS011;49973;52.084;5.412;2024-02-14T02:58:05;1.97;;;1.80;;
61911;SDS011;49973;52.084;5.412;2024-02-14T03:00:34;2.20;;;1.90;;
61911;SDS011;49973;52.084;5.412;2024-02-14T03:03:02;2.93;;;2.63;;
61911;SDS011;49973;52.084;5.412;2024-02-14T03:05:35;2.03;;;1.83;;
61911;SDS011;49973;52.084;5.412;2024-02-14T03:08:06;3.37;;;2.37;;
61911;SDS011;49973;52.084;5.412;2024-02-14T03:10:35;2.73;;;1.87;;
61911;SDS011;49973;52.084;5.412;2024-02-14T03:13:05;2.40;;;2.20;;
61911;SDS011;49973;52.084;5.412;2024-02-14T03:15:35;3.10;;;2.23;;
61911;SDS011;49973;52.084;5.412;2024-02-14T03:18:04;2.80;;;1.87;;
61911;SDS011;49973;52.084;5.412;2024-02-14T03:20:36;3.13;;;2.63;;
61911;SDS011;49973;52.084;5.412;2024-02-14T03:23:05;1.40;;;1.30;;
61911;SDS011;49973;52.084;5.412;2024-02-14T03:25:34;3.77;;;2.87;;
61911;SDS011;49973;52.084;5.412;2024-02-14T03:28:05;2.80;;;2.60;;
61911;SDS011;49973;52.084;5.412;2024-02-14T03:30:35;2.23;;;2.03;;
61911;SDS011;49973;52.084;5.412;2024-02-14T03:33:06;3.03;;;2.47;;
61911;SDS011;49973;52.084;5.412;2024-02-14T03:35:35;3.30;;;2.63;;
61911;SDS011;49973;52.084;5.412;2024-02-14T03:38:04;2.97;;;2.63;;
61911;SDS011;49973;52.084;5.412;2024-02-14T03:40:35;3.90;;;2.30;;
61911;SDS011;49973;52.084;5.412;2024-02-14T03:43:06;3.47;;;2.63;;
61911;SDS011;49973;52.084;5.412;2024-02-14T03:45:39;3.07;;;2.40;;
61911;SDS011;49973;52.084;5.412;2024-02-14T03:48:07;2.07;;;1.87;;
61911;SDS011;49973;52.084;5.412;2024-02-14T03:50:37;3.33;;;2.53;;
61911;SDS011;49973;52.084;5.412;2024-02-14T03:53:07;4.00;;;2.77;;
61911;SDS011;49973;52.084;5.412;2024-02-14T03:55:37;4.00;;;2.67;;
61911;SDS011;49973;52.084;5.412;2024-02-14T03:58:07;2.93;;;2.33;;
61911;SDS011;49973;52.084;5.412;2024-02-14T04:00:36;4.10;;;3.37;;
61911;SDS011;49973;52.084;5.412;2024-02-14T04:03:05;5.27;;;3.60;;
61911;SDS011;49973;52.084;5.412;2024-02-14T04:05:34;3.63;;;2.57;;
61911;SDS011;49973;52.084;5.412;2024-02-14T04:08:03;3.13;;;2.70;;
61911;SDS011;49973;52.084;5.412;2024-02-14T04:10:35;4.10;;;3.07;;
61911;SDS011;49973;52.084;5.412;2024-02-14T04:13:04;5.53;;;3.43;;
61911;SDS011;49973;52.084;5.412;2024-02-14T04:15:34;4.97;;;3.43;;
61911;SDS011;49973;52.084;5.412;2024-02-14T04:18:03;4.07;;;2.83;;
61911;SDS011;49973;52.084;5.412;2024-02-14T04:20:34;4.33;;;3.47;;
61911;SDS011;49973;52.084;5.412;2024-02-14T04:23:03;4.40;;;2.40;;
61911;SDS011;49973;52.084;5.412;2024-02-14T04:25:33;3.83;;;2.70;;
61911;SDS011;49973;52.084;5.412;2024-02-14T04:28:03;4.37;;;2.97;;
61911;SDS011;49973;52.084;5.412;2024-02-14T04:30:32;2.40;;;2.17;;
61911;SDS011;49973;52.084;5.412;2024-02-14T04:33:03;4.57;;;2.67;;
61911;SDS011;49973;52.084;5.412;2024-02-14T04:35:38;3.90;;;3.03;;
61911;SDS011;49973;52.084;5.412;2024-02-14T04:38:07;7.60;;;3.47;;
61911;SDS011;49973;52.084;5.412;2024-02-14T04:40:36;4.53;;;2.70;;
61911;SDS011;49973;52.084;5.412;2024-02-14T04:43:05;4.97;;;3.00;;
61911;SDS011;49973;52.084;5.412;2024-02-14T04:45:35;4.23;;;2.80;;
61911;SDS011;49973;52.084;5.412;2024-02-14T04:48:03;8.80;;;3.60;;
61911;SDS011;49973;52.084;5.412;2024-02-14T04:50:33;4.57;;;3.23;;
61911;SDS011;49973;52.084;5.412;2024-02-14T04:53:01;3.43;;;2.43;;
61911;SDS011;49973;52.084;5.412;2024-02-14T04:55:30;3.13;;;2.20;;
61911;SDS011;49973;52.084;5.412;2024-02-14T04:58:00;5.70;;;3.97;;
61911;SDS011;49973;52.084;5.412;2024-02-14T05:00:28;7.93;;;3.53;;
61911;SDS011;49973;52.084;5.412;2024-02-14T05:02:58;5.93;;;3.97;;
61911;SDS011;49973;52.084;5.412;2024-02-14T05:05:28;5.47;;;3.57;;
61911;SDS011;49973;52.084;5.412;2024-02-14T05:07:57;4.03;;;3.23;;
61911;SDS011;49973;52.084;5.412;2024-02-14T05:10:26;7.10;;;3.47;;
61911;SDS011;49973;52.084;5.412;2024-02-14T05:12:55;4.13;;;3.07;;
61911;SDS011;49973;52.084;5.412;2024-02-14T05:15:23;3.73;;;2.83;;
61911;SDS011;49973;52.084;5.412;2024-02-14T05:17:52;7.50;;;4.60;;
61911;SDS011;49973;52.084;5.412;2024-02-14T05:20:22;7.93;;;4.27;;
61911;SDS011;49973;52.084;5.412;2024-02-14T05:22:51;5.30;;;3.50;;
61911;SDS011;49973;52.084;5.412;2024-02-14T05:25:19;4.40;;;2.47;;
61911;SDS011;49973;52.084;5.412;2024-02-14T05:27:48;4.80;;;3.10;;
61911;SDS011;49973;52.084;5.412;2024-02-14T05:30:16;5.60;;;4.03;;
61911;SDS011;49973;52.084;5.412;2024-02-14T05:32:45;4.83;;;3.80;;
61911;SDS011;49973;52.084;5.412;2024-02-14T05:35:14;5.50;;;3.77;;
61911;SDS011;49973;52.084;5.412;2024-02-14T05:37:44;4.63;;;3.30;;
61911;SDS011;49973;52.084;5.412;2024-02-14T05:40:17;4.23;;;3.23;;
61911;SDS011;49973;52.084;5.412;2024-02-14T05:42:46;5.70;;;4.33;;
61911;SDS011;49973;52.084;5.412;2024-02-14T05:45:14;5.40;;;2.90;;
61911;SDS011;49973;52.084;5.412;2024-02-14T05:47:43;5.17;;;2.83;;
61911;SDS011;49973;52.084;5.412;2024-02-14T05:50:12;5.10;;;3.47;;
61911;SDS011;49973;52.084;5.412;2024-02-14T05:52:40;5.17;;;3.23;;
61911;SDS011;49973;52.084;5.412;2024-02-14T05:55:10;4.40;;;3.13;;
61911;SDS011;49973;52.084;5.412;2024-02-14T05:57:39;3.67;;;2.77;;
61911;SDS011;49973;52.084;5.412;2024-02-14T06:00:08;4.30;;;3.20;;
61911;SDS011;49973;52.084;5.412;2024-02-14T06:02:39;3.73;;;2.57;;
61911;SDS011;49973;52.084;5.412;2024-02-14T06:05:08;5.47;;;3.23;;
61911;SDS011;49973;52.084;5.412;2024-02-14T06:07:37;5.23;;;2.87;;
61911;SDS011;49973;52.084;5.412;2024-02-14T06:10:07;4.03;;;2.90;;
61911;SDS011;49973;52.084;5.412;2024-02-14T06:12:38;2.77;;;2.57;;
61911;SDS011;49973;52.084;5.412;2024-02-14T06:15:07;3.83;;;3.00;;
61911;SDS011;49973;52.084;5.412;2024-02-14T06:17:36;5.63;;;3.40;;
61911;SDS011;49973;52.084;5.412;2024-02-14T06:20:06;2.30;;;2.13;;
61911;SDS011;49973;52.084;5.412;2024-02-14T06:22:36;3.50;;;2.00;;
61911;SDS011;49973;52.084;5.412;2024-02-14T06:25:16;3.57;;;2.40;;
61911;SDS011;49973;52.084;5.412;2024-02-14T06:27:46;3.33;;;2.23;;
61911;SDS011;49973;52.084;5.412;2024-02-14T06:30:14;4.10;;;2.50;;
61911;SDS011;49973;52.084;5.412;2024-02-14T06:32:45;2.50;;;1.90;;
61911;SDS011;49973;52.084;5.412;2024-02-14T06:35:14;3.93;;;2.60;;
61911;SDS011;49973;52.084;5.412;2024-02-14T06:37:46;2.70;;;2.03;;
61911;SDS011;49973;52.084;5.412;2024-02-14T06:40:28;2.93;;;2.37;;
61911;SDS011;49973;52.084;5.412;2024-02-14T06:42:58;3.87;;;2.77;;
61911;SDS011;49973;52.084;5.412;2024-02-14T06:45:28;3.77;;;2.47;;
61911;SDS011;49973;52.084;5.412;2024-02-14T06:47:57;5.13;;;3.53;;
61911;SDS011;49973;52.084;5.412;2024-02-14T06:50:26;4.27;;;3.03;;
61911;SDS011;49973;52.084;5.412;2024-02-14T06:52:56;6.13;;;3.17;;
61911;SDS011;49973;52.084;5.412;2024-02-14T06:55:26;4.53;;;3.23;;
61911;SDS011;49973;52.084;5.412;2024-02-14T06:57:55;4.83;;;3.20;;
61911;SDS011;49973;52.084;5.412;2024-02-14T07:00:25;4.43;;;2.90;;
61911;SDS011;49973;52.084;5.412;2024-02-14T07:02:55;4.87;;;3.40;;
61911;SDS011;49973;52.084;5.412;2024-02-14T07:05:23;5.10;;;3.67;;
61911;SDS011;49973;52.084;5.412;2024-02-14T07:07:53;12.27;;;3.73;;
61911;SDS011;49973;52.084;5.412;2024-02-14T07:10:21;3.97;;;3.37;;
61911;SDS011;49973;52.084;5.412;2024-02-14T07:12:50;5.23;;;3.33;;
61911;SDS011;49973;52.084;5.412;2024-02-14T07:15:19;4.13;;;3.00;;
61911;SDS011;49973;52.084;5.412;2024-02-14T07:17:49;4.20;;;3.00;;
61911;SDS011;49973;52.084;5.412;2024-02-14T07:20:18;11.83;;;5.53;;
61911;SDS011;49973;52.084;5.412;2024-02-14T07:22:47;4.27;;;3.87;;
61911;SDS011;49973;52.084;5.412;2024-02-14T07:25:19;6.70;;;4.30;;
61911;SDS011;49973;52.084;5.412;2024-02-14T07:27:48;4.63;;;3.37;;
61911;SDS011;49973;52.084;5.412;2024-02-14T07:30:17;5.40;;;3.70;;
61911;SDS011;49973;52.084;5.412;2024-02-14T07:32:46;6.53;;;3.80;;
61911;SDS011;49973;52.084;5.412;2024-02-14T07:35:16;6.93;;;3.80;;
61911;SDS011;49973;52.084;5.412;2024-02-14T07:37:45;4.53;;;2.97;;
61911;SDS011;49973;52.084;5.412;2024-02-14T07:40:14;8.17;;;4.53;;
61911;SDS011;49973;52.084;5.412;2024-02-14T07:42:44;4.23;;;2.83;;
61911;SDS011;49973;52.084;5.412;2024-02-14T07:45:13;4.77;;;3.30;;
61911;SDS011;49973;52.084;5.412;2024-02-14T07:47:42;6.60;;;3.97;;
61911;SDS011;49973;52.084;5.412;2024-02-14T07:50:10;5.50;;;3.87;;
61911;SDS011;49973;52.084;5.412;2024-02-14T07:52:42;6.87;;;3.33;;
61911;SDS011;49973;52.084;5.412;2024-02-14T07:55:11;3.87;;;2.43;;
61911;SDS011;49973;52.084;5.412;2024-02-14T07:57:40;5.37;;;3.70;;
61911;SDS011;49973;52.084;5.412;2024-02-14T08:00:10;6.37;;;4.47;;
61911;SDS011;49973;52.084;5.412;2024-02-14T08:02:45;5.73;;;3.50;;
61911;SDS011;49973;52.084;5.412;2024-02-14T08:05:14;4.93;;;3.30;;
61911;SDS011;49973;52.084;5.412;2024-02-14T08:07:45;4.57;;;3.43;;
61911;SDS011;49973;52.084;5.412;2024-02-14T08:10:14;4.67;;;2.27;;
61911;SDS011;49973;52.084;5.412;2024-02-14T08:12:42;4.00;;;3.10;;
61911;SDS011;49973;52.084;5.412;2024-02-14T08:15:11;4.13;;;3.20;;
61911;SDS011;49973;52.084;5.412;2024-02-14T08:17:40;3.43;;;2.77;;
61911;SDS011;49973;52.084;5.412;2024-02-14T08:20:13;5.63;;;3.80;;
61911;SDS011;49973;52.084;5.412;2024-02-14T08:22:42;4.33;;;3.07;;
61911;SDS011;49973;52.084;5.412;2024-02-14T08:25:12;4.20;;;3.03;;
61911;SDS011;49973;52.084;5.412;2024-02-14T08:27:40;6.63;;;3.77;;
61911;SDS011;49973;52.084;5.412;2024-02-14T08:30:09;7.63;;;4.07;;
61911;SDS011;49973;52.084;5.412;2024-02-14T08:32:39;3.90;;;3.20;;
61911;SDS011;49973;52.084;5.412;2024-02-14T08:35:08;5.57;;;4.03;;
61911;SDS011;49973;52.084;5.412;2024-02-14T08:37:40;4.90;;;3.13;;
61911;SDS011;49973;52.084;5.412;2024-02-14T08:40:09;5.07;;;4.17;;
61911;SDS011;49973;52.084;5.412;2024-02-14T08:42:40;3.87;;;3.07;;
61911;SDS011;49973;52.084;5.412;2024-02-14T08:45:09;7.57;;;4.73;;
61911;SDS011;49973;52.084;5.412;2024-02-14T08:47:38;4.97;;;3.57;;
61911;SDS011;49973;52.084;5.412;2024-02-14T08:50:07;6.37;;;3.53;;
61911;SDS011;49973;52.084;5.412;2024-02-14T08:52:37;6.23;;;4.23;;
61911;SDS011;49973;52.084;5.412;2024-02-14T08:55:05;6.13;;;4.03;;
61911;SDS011;49973;52.084;5.412;2024-02-14T08:57:42;4.97;;;3.40;;
61911;SDS011;49973;52.084;5.412;2024-02-14T09:00:12;4.23;;;3.23;;
61911;SDS011;49973;52.084;5.412;2024-02-14T09:02:46;4.03;;;3.07;;
61911;SDS011;49973;52.084;5.412;2024-02-14T09:05:15;5.40;;;3.40;;
61911;SDS011;49973;52.084;5.412;2024-02-14T09:07:45;4.03;;;2.77;;
61911;SDS011;49973;52.084;5.412;2024-02-14T09:10:14;8.33;;;4.03;;
61911;SDS011;49973;52.084;5.412;2024-02-14T09:12:44;5.93;;;3.50;;
61911;SDS011;49973;52.084;5.412;2024-02-14T09:15:13;5.17;;;3.67;;
61911;SDS011;49973;52.084;5.412;2024-02-14T09:17:42;3.50;;;2.90;;
61911;SDS011;49973;52.084;5.412;2024-02-14T09:20:10;4.47;;;3.40;;
61911;SDS011;49973;52.084;5.412;2024-02-14T09:22:41;4.07;;;2.73;;
61911;SDS011;49973;52.084;5.412;2024-02-14T09:25:10;4.50;;;3.13;;
61911;SDS011;49973;52.084;5.412;2024-02-14T09:27:39;7.00;;;4.80;;
61911;SDS011;49973;52.084;5.412;2024-02-14T09:30:10;5.03;;;3.20;;
61911;SDS011;49973;52.084;5.412;2024-02-14T09:32:54;4.53;;;3.03;;
61911;SDS011;49973;52.084;5.412;2024-02-14T09:35:23;5.03;;;3.83;;
61911;SDS011;49973;52.084;5.412;2024-02-14T09:37:52;5.50;;;3.63;;
61911;SDS011;49973;52.084;5.412;2024-02-14T09:40:21;4.57;;;3.57;;
61911;SDS011;49973;52.084;5.412;2024-02-14T09:42:51;3.07;;;2.77;;
61911;SDS011;49973;52.084;5.412;2024-02-14T09:45:24;3.70;;;2.90;;
61911;SDS011;49973;52.084;5.412;2024-02-14T09:47:53;5.67;;;3.53;;
61911;SDS011;49973;52.084;5.412;2024-02-14T09:50:23;4.97;;;3.77;;
61911;SDS011;49973;52.084;5.412;2024-02-14T09:52:54;4.37;;;2.80;;
61911;SDS011;49973;52.084;5.412;2024-02-14T09:55:24;7.77;;;3.93;;
61911;SDS011;49973;52.084;5.412;2024-02-14T09:57:53;5.20;;;3.00;;
61911;SDS011;49973;52.084;5.412;2024-02-14T10:00:24;6.20;;;4.83;;
61911;SDS011;49973;52.084;5.412;2024-02-14T10:02:53;6.67;;;4.67;;
61911;SDS011;49973;52.084;5.412;2024-02-14T10:05:22;5.57;;;4.17;;
61911;SDS011;49973;52.084;5.412;2024-02-14T10:07:52;6.33;;;4.10;;
61911;SDS011;49973;52.084;5.412;2024-02-14T10:10:25;5.70;;;3.80;;
61911;SDS011;49973;52.084;5.412;2024-02-14T10:12:54;4.20;;;3.67;;
61911;SDS011;49973;52.084;5.412;2024-02-14T10:15:25;6.47;;;3.83;;
61911;SDS011;49973;52.084;5.412;2024-02-14T10:17:54;7.40;;;4.17;;
61911;SDS011;49973;52.084;5.412;2024-02-14T10:20:23;5.80;;;3.80;;
61911;SDS011;49973;52.084;5.412;2024-02-14T10:22:59;7.73;;;4.77;;
61911;SDS011;49973;52.084;5.412;2024-02-14T10:25:29;3.57;;;2.90;;
61911;SDS011;49973;52.084;5.412;2024-02-14T10:28:02;5.10;;;3.50;;
61911;SDS011;49973;52.084;5.412;2024-02-14T10:30:33;9.73;;;4.40;;
61911;SDS011;49973;52.084;5.412;2024-02-14T10:33:02;6.10;;;3.87;;
61911;SDS011;49973;52.084;5.412;2024-02-14T10:35:46;5.53;;;4.07;;
61911;SDS011;49973;52.084;5.412;2024-02-14T10:38:17;5.57;;;3.57;;
61911;SDS011;49973;52.084;5.412;2024-02-14T10:40:47;6.90;;;4.60;;
61911;SDS011;49973;52.084;5.412;2024-02-14T10:43:16;3.87;;;3.20;;
61911;SDS011;49973;52.084;5.412;2024-02-14T10:45:46;9.00;;;3.80;;
61911;SDS011;49973;52.084;5.412;2024-02-14T10:48:16;7.37;;;4.43;;
61911;SDS011;49973;52.084;5.412;2024-02-14T10:50:45;5.20;;;3.13;;
61911;SDS011;49973;52.084;5.412;2024-02-14T10:53:17;5.37;;;3.73;;
61911;SDS011;49973;52.084;5.412;2024-02-14T10:55:47;5.40;;;3.57;;
61911;SDS011;49973;52.084;5.412;2024-02-14T10:58:17;7.27;;;4.13;;
61911;SDS011;49973;52.084;5.412;2024-02-14T11:00:47;4.67;;;3.40;;
61911;SDS011;49973;52.084;5.412;2024-02-14T11:03:16;6.40;;;4.20;;
61911;SDS011;49973;52.084;5.412;2024-02-14T11:05:45;4.37;;;3.30;;
61911;SDS011;49973;52.084;5.412;2024-02-14T11:08:15;5.20;;;3.93;;
61911;SDS011;49973;52.084;5.412;2024-02-14T11:10:52;3.90;;;3.40;;
61911;SDS011;49973;52.084;5.412;2024-02-14T11:13:24;6.80;;;3.73;;
61911;SDS011;49973;52.084;5.412;2024-02-14T11:15:55;7.07;;;4.40;;
61911;SDS011;49973;52.084;5.412;2024-02-14T11:18:24;5.43;;;3.33;;
61911;SDS011;49973;52.084;5.412;2024-02-14T11:20:54;5.30;;;4.07;;
61911;SDS011;49973;52.084;5.412;2024-02-14T11:23:24;7.70;;;3.37;;
61911;SDS011;49973;52.084;5.412;2024-02-14T11:25:59;4.77;;;3.70;;
61911;SDS011;49973;52.084;5.412;2024-02-14T11:28:29;4.00;;;3.30;;
61911;SDS011;49973;52.084;5.412;2024-02-14T11:31:00;5.03;;;3.30;;
61911;SDS011;49973;52.084;5.412;2024-02-14T11:33:31;2.90;;;2.40;;
61911;SDS011;49973;52.084;5.412;2024-02-14T11:36:07;5.37;;;3.90;;
61911;SDS011;49973;52.084;5.412;2024-02-14T11:38:39;5.63;;;3.47;;
61911;SDS011;49973;52.084;5.412;2024-02-14T11:41:10;5.07;;;3.70;;
61911;SDS011;49973;52.084;5.412;2024-02-14T11:43:39;4.40;;;3.23;;
61911;SDS011;49973;52.084;5.412;2024-02-14T11:46:19;3.73;;;3.03;;
61911;SDS011;49973;52.084;5.412;2024-02-14T11:48:48;6.13;;;3.27;;
61911;SDS011;49973;52.084;5.412;2024-02-14T11:51:17;5.33;;;3.93;;
61911;SDS011;49973;52.084;5.412;2024-02-14T11:53:46;7.63;;;4.77;;
61911;SDS011;49973;52.084;5.412;2024-02-14T11:56:15;5.30;;;3.17;;
61911;SDS011;49973;52.084;5.412;2024-02-14T11:58:44;4.37;;;3.13;;
61911;SDS011;49973;52.084;5.412;2024-02-14T12:01:12;4.40;;;3.20;;
61911;SDS011;49973;52.084;5.412;2024-02-14T12:03:43;9.87;;;4.50;;
61911;SDS011;49973;52.084;5.412;2024-02-14T12:06:12;5.20;;;3.50;;
61911;SDS011;49973;52.084;5.412;2024-02-14T12:08:42;3.77;;;3.47;;
61911;SDS011;49973;52.084;5.412;2024-02-14T12:11:11;4.23;;;2.97;;
61911;SDS011;49973;52.084;5.412;2024-02-14T12:13:40;5.73;;;3.03;;
61911;SDS011;49973;52.084;5.412;2024-02-14T12:16:10;3.77;;;2.67;;
61911;SDS011;49973;52.084;5.412;2024-02-14T12:18:39;4.60;;;3.00;;
61911;SDS011;49973;52.084;5.412;2024-02-14T12:21:09;3.83;;;3.07;;
61911;SDS011;49973;52.084;5.412;2024-02-14T12:23:39;9.13;;;3.17;;
61911;SDS011;49973;52.084;5.412;2024-02-14T12:26:08;4.57;;;2.57;;
61911;SDS011;49973;52.084;5.412;2024-02-14T12:28:45;3.17;;;2.67;;
61911;SDS011;49973;52.084;5.412;2024-02-14T12:31:21;3.73;;;2.57;;
61911;SDS011;49973;52.084;5.412;2024-02-14T12:33:50;3.33;;;2.50;;
61911;SDS011;49973;52.084;5.412;2024-02-14T12:36:23;5.20;;;3.37;;
61911;SDS011;49973;52.084;5.412;2024-02-14T12:38:52;3.67;;;2.60;;
61911;SDS011;49973;52.084;5.412;2024-02-14T12:41:21;3.80;;;2.60;;
61911;SDS011;49973;52.084;5.412;2024-02-14T12:43:53;5.83;;;2.63;;
61911;SDS011;49973;52.084;5.412;2024-02-14T12:46:22;2.73;;;2.43;;
61911;SDS011;49973;52.084;5.412;2024-02-14T12:48:50;3.20;;;2.30;;
61911;SDS011;49973;52.084;5.412;2024-02-14T12:51:19;3.03;;;1.73;;
61911;SDS011;49973;52.084;5.412;2024-02-14T12:53:50;5.90;;;3.07;;
61911;SDS011;49973;52.084;5.412;2024-02-14T12:56:19;1.90;;;1.73;;
61911;SDS011;49973;52.084;5.412;2024-02-14T12:58:47;2.00;;;1.57;;
61911;SDS011;49973;52.084;5.412;2024-02-14T13:01:16;3.60;;;2.87;;
61911;SDS011;49973;52.084;5.412;2024-02-14T13:03:45;2.67;;;1.70;;
61911;SDS011;49973;52.084;5.412;2024-02-14T13:06:14;2.23;;;1.93;;
61911;SDS011;49973;52.084;5.412;2024-02-14T13:08:43;2.37;;;1.77;;
61911;SDS011;49973;52.084;5.412;2024-02-14T13:11:14;2.83;;;1.70;;
61911;SDS011;49973;52.084;5.412;2024-02-14T13:13:45;2.47;;;2.10;;
61911;SDS011;49973;52.084;5.412;2024-02-14T13:16:14;2.10;;;1.73;;
61911;SDS011;49973;52.084;5.412;2024-02-14T13:18:43;1.60;;;1.43;;
61911;SDS011;49973;52.084;5.412;2024-02-14T13:21:12;2.50;;;1.67;;
61911;SDS011;49973;52.084;5.412;2024-02-14T13:23:41;3.13;;;2.37;;
61911;SDS011;49973;52.084;5.412;2024-02-14T13:26:10;3.20;;;1.70;;
61911;SDS011;49973;52.084;5.412;2024-02-14T13:28:40;1.50;;;1.40;;
61911;SDS011;49973;52.084;5.412;2024-02-14T13:31:08;1.87;;;1.53;;
61911;SDS011;49973;52.084;5.412;2024-02-14T13:33:38;2.07;;;1.67;;
61911;SDS011;49973;52.084;5.412;2024-02-14T13:36:07;1.37;;;1.17;;
61911;SDS011;49973;52.084;5.412;2024-02-14T13:38:36;2.40;;;1.80;;
61911;SDS011;49973;52.084;5.412;2024-02-14T13:41:05;2.07;;;1.67;;
61911;SDS011;49973;52.084;5.412;2024-02-14T13:43:33;1.63;;;1.53;;
61911;SDS011;49973;52.084;5.412;2024-02-14T13:46:04;2.17;;;1.70;;
61911;SDS011;49973;52.084;5.412;2024-02-14T13:48:32;2.57;;;1.50;;
61911;SDS011;49973;52.084;5.412;2024-02-14T13:51:02;4.07;;;2.10;;
61911;SDS011;49973;52.084;5.412;2024-02-14T13:53:30;3.30;;;2.03;;
61911;SDS011;49973;52.084;5.412;2024-02-14T13:56:00;3.13;;;2.37;;
61911;SDS011;49973;52.084;5.412;2024-02-14T13:58:28;4.67;;;2.60;;
61911;SDS011;49973;52.084;5.412;2024-02-14T14:00:57;3.23;;;2.43;;
61911;SDS011;49973;52.084;5.412;2024-02-14T14:03:27;2.90;;;2.33;;
61911;SDS011;49973;52.084;5.412;2024-02-14T14:05:56;3.00;;;2.53;;
61911;SDS011;49973;52.084;5.412;2024-02-14T14:08:25;3.17;;;2.13;;
61911;SDS011;49973;52.084;5.412;2024-02-14T14:10:54;3.07;;;2.33;;
61911;SDS011;49973;52.084;5.412;2024-02-14T14:13:22;4.40;;;2.63;;
61911;SDS011;49973;52.084;5.412;2024-02-14T14:15:51;3.83;;;2.80;;
61911;SDS011;49973;52.084;5.412;2024-02-14T14:18:20;3.43;;;3.03;;
61911;SDS011;49973;52.084;5.412;2024-02-14T14:20:50;3.80;;;2.80;;
61911;SDS011;49973;52.084;5.412;2024-02-14T14:23:19;4.90;;;3.30;;
61911;SDS011;49973;52.084;5.412;2024-02-14T14:25:47;4.00;;;3.23;;
61911;SDS011;49973;52.084;5.412;2024-02-14T14:28:16;3.30;;;2.90;;
61911;SDS011;49973;52.084;5.412;2024-02-14T14:30:47;2.83;;;2.37;;
61911;SDS011;49973;52.084;5.412;2024-02-14T14:33:16;4.07;;;2.87;;
61911;SDS011;49973;52.084;5.412;2024-02-14T14:35:45;3.60;;;2.90;;
61911;SDS011;49973;52.084;5.412;2024-02-14T14:38:18;5.10;;;3.17;;
61911;SDS011;49973;52.084;5.412;2024-02-14T14:40:46;3.97;;;2.63;;
61911;SDS011;49973;52.084;5.412;2024-02-14T14:43:15;3.70;;;2.80;;
61911;SDS011;49973;52.084;5.412;2024-02-14T14:45:46;3.90;;;3.00;;
61911;SDS011;49973;52.084;5.412;2024-02-14T14:48:16;3.23;;;2.33;;
61911;SDS011;49973;52.084;5.412;2024-02-14T14:50:45;4.33;;;3.00;;
61911;SDS011;49973;52.084;5.412;2024-02-14T14:53:15;3.70;;;3.10;;
61911;SDS011;49973;52.084;5.412;2024-02-14T14:55:52;3.30;;;2.30;;
61911;SDS011;49973;52.084;5.412;2024-02-14T14:58:23;6.27;;;3.17;;
61911;SDS011;49973;52.084;5.412;2024-02-14T15:00:55;3.47;;;2.43;;
61911;SDS011;49973;52.084;5.412;2024-02-14T15:03:25;4.77;;;2.70;;